createdAt,value
2023-05-06T00:04:30.908Z,98405.69
2023-05-06T00:09:32.499Z,98399.34
2023-05-06T00:14:34.067Z,98399.06
2023-05-06T00:19:35.623Z,98388.63
2023-05-06T00:24:37.164Z,98391.88
2023-05-06T00:29:38.779Z,98393.31
2023-05-06T00:34:40.294Z,98399.25
2023-05-06T00:39:41.976Z,98399.34
2023-05-06T00:44:43.494Z,98388.81
2023-05-06T00:49:47.491Z,98383.06
2023-05-06T00:54:49.504Z,98394.63
2023-05-06T00:59:51.086Z,98395.84
2023-05-06T01:04:55.447Z,98397.66
2023-05-06T01:10:06.580Z,98408.16
2023-05-06T01:15:14.456Z,98410.06
2023-05-06T01:20:18.375Z,98418.66
2023-05-06T01:25:21.429Z,98418.06
2023-05-06T01:30:24.794Z,98423.09
2023-05-06T01:36:00.592Z,98424.75
2023-05-06T01:41:03.024Z,98431.69
2023-05-06T01:46:06.445Z,98419.38
2023-05-06T01:51:07.972Z,98413.28
2023-05-06T01:56:09.490Z,98415.06
2023-05-06T02:01:11.032Z,98405.97
2023-05-06T02:06:12.566Z,98413.44
2023-05-06T02:11:14.209Z,98414.97
2023-05-06T02:16:15.848Z,98417.75
2023-05-06T02:21:19.403Z,98414.25
2023-05-06T02:26:21.015Z,98420.50
2023-05-06T02:31:22.783Z,98403.00
2023-05-06T02:36:24.431Z,98411.06
2023-05-06T02:41:25.996Z,98406.72
2023-05-06T02:46:27.543Z,98409.06
2023-05-06T02:51:29.114Z,98409.41
2023-05-06T02:56:31.235Z,98409.31
2023-05-06T03:01:33.188Z,98410.97
2023-05-06T03:06:34.849Z,98410.28
2023-05-06T03:11:36.374Z,98407.44
2023-05-06T03:16:37.961Z,98411.66
2023-05-06T03:21:39.553Z,98405.25
2023-05-06T03:26:41.183Z,98413.34
2023-05-06T03:31:42.767Z,98396.00
2023-05-06T03:36:44.331Z,98402.81
2023-05-06T03:41:45.858Z,98400.53
2023-05-06T03:46:47.374Z,98399.31
2023-05-06T03:51:48.991Z,98397.47
2023-05-06T03:56:50.651Z,98402.06
2023-05-06T04:01:52.299Z,98411.16
2023-05-06T04:06:53.849Z,98407.94
2023-05-06T04:11:55.906Z,98411.22
2023-05-06T04:16:57.455Z,98406.72
2023-05-06T04:21:59.019Z,98409.53
2023-05-06T04:27:00.766Z,98404.16
2023-05-06T04:32:03.042Z,98411.22
2023-05-06T04:37:05.700Z,98398.81
2023-05-06T04:42:07.529Z,98396.88
2023-05-06T04:47:09.194Z,98397.00
2023-05-06T04:52:10.842Z,98397.34
2023-05-06T04:57:12.506Z,98393.34
2023-05-06T05:02:14.066Z,98387.88
2023-05-06T05:07:15.689Z,98386.94
2023-05-06T05:12:17.288Z,98400.22
2023-05-06T05:17:18.809Z,98403.25
2023-05-06T05:22:20.671Z,98393.00
2023-05-06T05:27:22.248Z,98400.69
2023-05-06T05:32:23.847Z,98398.56
2023-05-06T05:37:25.382Z,98401.41
2023-05-06T05:42:27.863Z,98410.38
2023-05-06T05:47:29.411Z,98406.84
2023-05-06T05:52:31.657Z,98418.38
2023-05-06T05:57:33.202Z,98429.47
2023-05-06T06:02:34.858Z,98428.50
2023-05-06T06:07:36.552Z,98440.00
2023-05-06T06:12:38.268Z,98444.03
2023-05-06T06:17:39.897Z,98442.56
2023-05-06T06:22:41.640Z,98451.41
2023-05-06T06:27:43.241Z,98444.34
2023-05-06T06:32:49.769Z,98452.31
2023-05-06T06:37:52.451Z,98443.72
2023-05-06T06:42:53.987Z,98450.38
2023-05-06T06:47:55.621Z,98450.69
2023-05-06T06:52:57.170Z,98455.94
2023-05-06T06:57:58.761Z,98453.78
2023-05-06T07:03:00.452Z,98450.41
2023-05-06T07:08:01.986Z,98452.34
2023-05-06T07:13:03.729Z,98446.53
2023-05-06T07:18:05.829Z,98438.44
2023-05-06T07:23:07.480Z,98444.91
2023-05-06T07:28:09.032Z,98445.31
2023-05-06T07:33:11.503Z,98451.00
2023-05-06T07:38:13.316Z,98447.34
2023-05-06T07:43:14.853Z,98451.34
2023-05-06T07:48:18.648Z,98440.50
2023-05-06T07:53:21.548Z,98449.41
2023-05-06T07:58:23.047Z,98452.53
2023-05-06T08:03:26.189Z,98448.56
2023-05-06T08:08:28.157Z,98445.50
2023-05-06T08:13:30.716Z,98434.19
2023-05-06T08:18:33.111Z,98432.09
2023-05-06T08:23:34.771Z,98445.78
2023-05-06T08:28:36.540Z,98443.25
2023-05-06T08:33:38.168Z,98441.56
2023-05-06T08:38:39.750Z,98451.44
2023-05-06T08:43:42.297Z,98449.75
2023-05-06T08:48:43.946Z,98442.88
2023-05-06T08:53:49.465Z,98435.66
2023-05-06T08:58:51.940Z,98436.50
2023-05-06T09:03:55.175Z,98434.38
2023-05-06T09:08:56.680Z,98431.13
2023-05-06T09:14:27.505Z,98437.03
2023-05-06T09:19:29.072Z,98435.44
2023-05-06T09:24:30.934Z,98424.38
2023-05-06T09:29:32.495Z,98422.97
2023-05-06T09:34:34.369Z,98431.41
2023-05-06T09:39:35.932Z,98423.41
2023-05-06T09:44:37.857Z,98418.38
2023-05-06T09:49:39.686Z,98412.50
2023-05-06T09:54:41.603Z,98409.94
2023-05-06T09:59:44.495Z,98410.78
2023-05-06T10:04:48.596Z,98395.97
2023-05-06T10:09:51.542Z,98387.97
2023-05-06T10:14:53.148Z,98389.31
2023-05-06T10:19:58.369Z,98384.50
2023-05-06T10:25:05.596Z,98389.09
2023-05-06T10:30:09.530Z,98368.84
2023-05-06T10:35:41.030Z,98359.56
2023-05-06T10:40:44.037Z,98358.06
2023-05-06T10:46:04.204Z,98362.22
2023-05-06T10:51:26.023Z,98358.34
2023-05-06T10:56:27.887Z,98350.63
2023-05-06T11:01:29.667Z,98354.94
2023-05-06T11:06:48.834Z,98345.22
2023-05-06T11:11:54.604Z,98347.94
2023-05-06T11:16:58.927Z,98353.06
2023-05-06T11:22:02.123Z,98339.81
2023-05-06T11:27:03.892Z,98345.94
2023-05-06T11:32:17.714Z,98344.94
2023-05-06T11:37:28.138Z,98336.03
2023-05-06T11:42:29.780Z,98338.13
2023-05-06T11:47:31.407Z,98341.22
2023-05-06T11:52:33.025Z,98343.41
2023-05-06T11:57:34.607Z,98328.13
2023-05-06T12:02:36.229Z,98326.78
2023-05-06T12:07:38.589Z,98324.59
2023-05-06T12:12:40.271Z,98327.81
2023-05-06T12:17:41.935Z,98317.69
2023-05-06T12:22:43.460Z,98322.31
2023-05-06T12:27:45.648Z,98319.22
2023-05-06T12:32:58.278Z,98312.13
2023-05-06T12:38:16.286Z,98310.28
2023-05-06T12:43:18.048Z,98299.19
2023-05-06T12:48:19.553Z,98295.69
2023-05-06T12:53:35.541Z,98289.25
2023-05-06T12:58:38.198Z,98282.03
2023-05-06T13:03:41.086Z,98279.06
2023-05-06T13:08:42.876Z,98279.75
2023-05-06T13:13:44.486Z,98283.44
2023-05-06T13:18:46.016Z,98291.19
2023-05-06T13:23:48.057Z,98285.44
2023-05-06T13:28:49.728Z,98280.72
2023-05-06T13:33:51.351Z,98280.69
2023-05-06T13:38:53.256Z,98293.19
2023-05-06T13:43:54.811Z,98304.88
2023-05-06T13:48:56.392Z,98297.66
2023-05-06T13:53:58.042Z,98305.16
2023-05-06T13:58:59.597Z,98318.06
2023-05-06T14:04:01.221Z,98320.69
2023-05-06T14:09:02.759Z,98324.72
2023-05-06T14:14:06.361Z,98303.34
2023-05-06T14:19:07.914Z,98293.19
2023-05-06T14:24:10.287Z,98271.88
2023-05-06T14:29:11.934Z,98264.22
2023-05-06T14:34:13.514Z,98262.06
2023-05-06T14:39:15.386Z,98254.56
2023-05-06T14:44:16.922Z,98258.53
2023-05-06T14:49:18.600Z,98276.19
2023-05-06T14:54:20.160Z,98278.56
2023-05-06T14:59:22.696Z,98279.03
2023-05-06T15:04:24.256Z,98279.16
2023-05-06T15:09:26.376Z,98284.28
2023-05-06T15:14:27.944Z,98288.50
2023-05-06T15:19:29.486Z,98300.50
2023-05-06T15:24:31.456Z,98294.88
2023-05-06T15:29:33.024Z,98293.13
2023-05-06T15:34:34.641Z,98299.13
2023-05-06T15:39:37.725Z,98300.25
2023-05-06T15:44:39.337Z,98291.09
2023-05-06T15:54:49.713Z,98291.94
2023-05-06T15:59:51.720Z,98293.00
2023-05-06T16:04:53.614Z,98288.34
2023-05-06T16:09:55.843Z,98293.31
2023-05-06T16:14:57.644Z,98294.47
2023-05-06T16:20:00.235Z,98297.66
2023-05-06T16:25:01.771Z,98303.97
2023-05-06T16:30:03.644Z,98313.06
2023-05-06T16:35:05.672Z,98303.97
2023-05-06T16:40:08.410Z,98296.03
2023-05-06T16:45:12.090Z,98281.41
2023-05-06T16:50:14.185Z,98283.03
2023-05-06T16:55:16.192Z,98290.41
2023-05-06T17:00:18.300Z,98290.00
2023-05-06T17:05:22.050Z,98300.72
2023-05-06T17:10:29.169Z,98310.19
2023-05-06T17:15:31.348Z,98333.66
2023-05-06T17:20:38.045Z,98329.59
2023-05-06T17:25:49.641Z,98341.66
2023-05-06T17:30:51.986Z,98357.97
2023-05-06T17:35:54.216Z,98378.00
2023-05-06T17:40:56.667Z,98394.91
2023-05-06T17:45:58.641Z,98419.66
2023-05-06T17:51:02.573Z,98432.84
2023-05-06T17:56:05.051Z,98443.44
2023-05-06T18:01:07.304Z,98439.78
2023-05-06T18:06:09.527Z,98434.31
2023-05-06T18:11:11.913Z,98444.81
2023-05-06T18:16:14.151Z,98444.88
2023-05-06T18:21:16.303Z,98450.41
2023-05-06T18:26:31.711Z,98455.97
2023-05-06T18:31:41.415Z,98475.34
2023-05-06T18:36:43.696Z,98468.84
2023-05-06T18:41:45.961Z,98479.72
2023-05-06T18:46:48.192Z,98503.09
2023-05-06T18:51:50.443Z,98525.06
2023-05-06T18:56:52.997Z,98532.84
2023-05-06T19:01:55.306Z,98529.69
2023-05-06T19:06:57.617Z,98536.09
2023-05-06T19:11:59.872Z,98540.41
2023-05-06T19:17:04.210Z,98534.84
2023-05-06T19:22:06.512Z,98531.97
2023-05-06T19:27:08.654Z,98532.13
2023-05-06T19:32:10.876Z,98542.44
2023-05-06T19:37:13.144Z,98547.19
2023-05-06T19:42:15.803Z,98541.38
2023-05-06T19:47:18.057Z,98542.16
2023-05-06T19:52:20.221Z,98531.00
2023-05-06T19:57:22.405Z,98531.91
2023-05-06T20:02:24.668Z,98527.06
2023-05-06T20:07:26.844Z,98521.81
2023-05-06T20:12:29.120Z,98520.94
2023-05-06T20:17:31.588Z,98521.78
2023-05-06T20:22:33.860Z,98516.72
2023-05-06T20:27:36.796Z,98513.88
2023-05-06T20:32:40.911Z,98511.78
2023-05-06T20:37:43.102Z,98515.00
2023-05-06T20:42:45.010Z,98526.91
2023-05-06T20:47:46.667Z,98514.56
2023-05-06T20:52:48.375Z,98518.78
2023-05-06T20:57:50.058Z,98517.66
2023-05-06T21:02:51.836Z,98514.56
2023-05-06T21:07:53.929Z,98516.06
2023-05-06T21:12:55.661Z,98508.34
2023-05-06T21:17:57.262Z,98510.25
2023-05-06T21:22:58.873Z,98498.84
2023-05-06T21:28:05.404Z,98503.78
2023-05-06T21:33:08.306Z,98505.56
2023-05-06T21:38:10.077Z,98513.47
2023-05-06T21:43:12.491Z,98511.03
2023-05-06T21:48:14.064Z,98507.94
2023-05-06T21:53:15.773Z,98504.56
2023-05-06T21:58:17.320Z,98488.53
2023-05-06T22:03:18.926Z,98485.94
2023-05-06T22:08:20.606Z,98485.91
2023-05-06T22:13:25.590Z,98489.59
2023-05-06T22:18:28.000Z,98481.00
2023-05-06T22:23:29.624Z,98486.00
2023-05-06T22:28:31.241Z,98483.88
2023-05-06T22:33:32.869Z,98482.81
2023-05-06T22:38:34.433Z,98473.00
2023-05-06T22:43:35.955Z,98474.38
2023-05-06T22:48:37.462Z,98474.19
2023-05-06T22:53:38.993Z,98469.75
2023-05-06T22:58:40.674Z,98472.34
2023-05-06T23:03:42.309Z,98479.94
2023-05-06T23:08:44.073Z,98479.41
2023-05-06T23:13:45.721Z,98473.00
2023-05-06T23:18:47.631Z,98466.31
2023-05-06T23:23:51.315Z,98477.78
2023-05-06T23:28:52.825Z,98480.22
2023-05-06T23:33:54.415Z,98484.09
2023-05-06T23:38:56.501Z,98492.50
2023-05-06T23:43:58.074Z,98492.94
2023-05-06T23:48:59.617Z,98488.22
2023-05-06T23:54:01.354Z,98463.13
2023-05-06T23:59:02.894Z,98478.31
